createdAt,value
2019-04-16T00:00:19.760Z,50.43
2019-04-16T00:01:19.740Z,50.74
2019-04-16T00:02:19.740Z,51.04
2019-04-16T00:03:20.344Z,51.15
2019-04-16T00:04:22.284Z,51.15
2019-04-16T00:05:20.721Z,51.17
2019-04-16T00:06:19.979Z,51.79
2019-04-16T00:07:20.388Z,52.40
2019-04-16T00:08:27.624Z,52.22
2019-04-16T00:09:20.719Z,52.73
2019-04-16T00:10:19.662Z,52.94
2019-04-16T00:11:19.639Z,53.05
2019-04-16T00:12:19.626Z,53.58
2019-04-16T00:13:19.628Z,52.76
2019-04-16T00:14:19.618Z,52.66
2019-04-16T00:15:19.651Z,52.66
2019-04-16T00:16:19.598Z,53.17
2019-04-16T00:17:19.611Z,53.48
2019-04-16T00:18:19.879Z,53.79
2019-04-16T00:19:19.567Z,53.56
2019-04-16T00:20:19.548Z,53.45
2019-04-16T00:21:19.574Z,53.28
2019-04-16T00:22:19.545Z,53.48
2019-04-16T00:23:19.526Z,53.89
2019-04-16T00:24:19.631Z,54.53
2019-04-16T00:25:19.786Z,54.43
2019-04-16T00:26:19.489Z,53.81
2019-04-16T00:27:19.527Z,53.81
2019-04-16T00:28:19.477Z,54.22
2019-04-16T00:29:19.455Z,53.81
2019-04-16T00:30:19.448Z,54.02
2019-04-16T00:31:19.427Z,54.33
2019-04-16T00:32:19.719Z,54.13
2019-04-16T00:33:19.446Z,54.02
2019-04-16T00:34:19.396Z,54.02
2019-04-16T00:35:19.397Z,53.50
2019-04-16T00:36:19.383Z,54.02
2019-04-16T00:37:21.296Z,54.33
2019-04-16T00:38:22.490Z,53.81
2019-04-16T00:39:24.429Z,53.30
2019-04-16T00:40:20.348Z,53.50
2019-04-16T00:41:19.335Z,53.50
2019-04-16T00:42:20.228Z,53.20
2019-04-16T00:43:19.307Z,53.50
2019-04-16T00:44:19.305Z,53.07
2019-04-16T00:45:19.381Z,53.07
2019-04-16T00:46:19.306Z,52.45
2019-04-16T00:47:19.271Z,53.07
2019-04-16T00:48:19.271Z,52.66
2019-04-16T00:49:19.244Z,52.66
2019-04-16T00:50:19.246Z,52.35
2019-04-16T00:51:19.264Z,52.43
2019-04-16T00:52:19.484Z,51.92
2019-04-16T00:53:19.194Z,52.33
2019-04-16T00:54:19.209Z,51.81
2019-04-16T00:55:19.194Z,51.81
2019-04-16T00:56:19.175Z,51.81
2019-04-16T00:57:19.200Z,51.61
2019-04-16T00:58:19.835Z,51.30
2019-04-16T00:59:21.388Z,51.50
2019-04-16T01:00:20.064Z,51.81
2019-04-16T01:01:19.253Z,51.50
2019-04-16T01:02:19.139Z,51.20
2019-04-16T01:03:19.244Z,51.20
2019-04-16T01:04:19.084Z,51.92
2019-04-16T01:05:19.066Z,52.01
2019-04-16T01:06:19.342Z,51.92
2019-04-16T01:07:19.083Z,52.64
2019-04-16T01:08:19.036Z,52.84
2019-04-16T01:09:19.053Z,52.12
2019-04-16T01:10:19.012Z,51.81
2019-04-16T01:11:19.011Z,52.94
2019-04-16T01:12:19.006Z,52.53
2019-04-16T01:13:21.689Z,52.43
2019-04-16T01:14:20.008Z,52.73
2019-04-16T01:15:18.962Z,53.56
2019-04-16T01:16:18.956Z,53.56
2019-04-16T01:17:18.941Z,53.58
2019-04-16T01:18:18.930Z,53.38
2019-04-16T01:19:18.917Z,53.89
2019-04-16T01:20:19.241Z,53.17
2019-04-16T01:21:18.901Z,53.69
2019-04-16T01:22:18.881Z,54.10
2019-04-16T01:23:18.883Z,54.20
2019-04-16T01:24:20.209Z,52.97
2019-04-16T01:25:20.249Z,53.28
2019-04-16T01:26:18.874Z,53.17
2019-04-16T01:27:19.111Z,52.97
2019-04-16T01:28:18.820Z,53.07
2019-04-16T01:29:18.799Z,52.86
2019-04-16T01:30:18.810Z,52.97
2019-04-16T01:31:18.791Z,52.99
2019-04-16T01:32:18.837Z,53.09
2019-04-16T01:33:18.759Z,53.09
2019-04-16T01:34:19.040Z,52.99
2019-04-16T01:35:19.720Z,53.41
2019-04-16T01:36:20.339Z,53.41
2019-04-16T01:37:18.719Z,53.30
2019-04-16T01:38:18.764Z,54.02
2019-04-16T01:39:18.710Z,53.71
2019-04-16T01:40:19.311Z,53.50
2019-04-16T01:41:21.752Z,53.81
2019-04-16T01:42:23.141Z,53.30
2019-04-16T01:43:18.667Z,53.81
2019-04-16T01:44:18.672Z,53.81
2019-04-16T01:45:18.628Z,53.71
2019-04-16T01:46:18.627Z,53.74
2019-04-16T01:47:18.608Z,54.05
2019-04-16T01:48:18.890Z,54.15
2019-04-16T01:49:18.590Z,54.35
2019-04-16T01:50:18.618Z,54.05
2019-04-16T01:51:18.565Z,54.46
2019-04-16T01:52:19.563Z,54.35
2019-04-16T01:53:21.134Z,54.56
2019-04-16T01:54:22.627Z,54.87
2019-04-16T01:55:18.808Z,54.66
2019-04-16T01:56:18.717Z,54.66
2019-04-16T01:57:18.519Z,54.69
2019-04-16T01:58:18.497Z,55.00
2019-04-16T01:59:18.494Z,55.30
2019-04-16T02:01:49.466Z,55.43
2019-04-16T02:02:49.850Z,55.54
2019-04-16T02:03:49.897Z,55.64
2019-04-16T02:04:51.950Z,55.85
2019-04-16T02:05:49.074Z,56.26
2019-04-16T02:06:49.100Z,55.95
2019-04-16T02:07:49.518Z,55.95
2019-04-16T02:08:49.068Z,56.26
2019-04-16T02:09:49.192Z,56.46
2019-04-16T02:10:49.058Z,56.05
2019-04-16T02:11:49.043Z,56.05
2019-04-16T02:12:49.031Z,56.29
2019-04-16T02:13:49.395Z,56.49
2019-04-16T02:14:50.452Z,56.29
2019-04-16T02:15:50.633Z,56.49
2019-04-16T02:16:48.971Z,56.39
2019-04-16T02:17:48.952Z,56.80
2019-04-16T02:18:48.946Z,56.70
2019-04-16T02:19:49.262Z,57.11
2019-04-16T02:20:48.922Z,57.01
2019-04-16T02:21:48.922Z,57.11
2019-04-16T02:22:49.669Z,56.90
2019-04-16T02:23:48.893Z,56.80
2019-04-16T02:24:48.918Z,56.70
2019-04-16T02:25:51.358Z,56.90
2019-04-16T02:26:49.151Z,57.01
2019-04-16T02:27:48.850Z,56.93
2019-04-16T02:28:48.841Z,57.45
2019-04-16T02:29:48.828Z,57.14
2019-04-16T02:30:48.827Z,57.24
2019-04-16T02:31:51.478Z,57.45
2019-04-16T02:32:48.800Z,57.34
2019-04-16T02:33:49.085Z,57.45
2019-04-16T02:34:48.781Z,57.45
2019-04-16T02:35:48.769Z,57.34
2019-04-16T02:36:48.765Z,57.24
2019-04-16T02:37:48.770Z,57.03
2019-04-16T02:38:53.303Z,57.34
2019-04-16T02:39:49.863Z,57.14
2019-04-16T02:40:52.961Z,56.93
2019-04-16T02:41:48.701Z,57.14
2019-04-16T02:42:48.726Z,57.14
2019-04-16T02:43:48.728Z,57.24
2019-04-16T02:44:50.157Z,57.24
2019-04-16T02:45:48.666Z,57.17
2019-04-16T02:46:48.948Z,57.47
2019-04-16T02:47:48.657Z,57.37
2019-04-16T02:48:51.351Z,57.57
2019-04-16T02:49:48.699Z,57.68
2019-04-16T02:50:48.608Z,57.47
2019-04-16T02:51:48.609Z,57.78
2019-04-16T02:52:51.140Z,57.78
2019-04-16T02:53:48.851Z,57.78
2019-04-16T02:54:48.571Z,57.89
2019-04-16T02:55:48.577Z,57.89
2019-04-16T02:56:52.141Z,58.09
2019-04-16T02:57:48.532Z,58.09
2019-04-16T02:58:48.536Z,58.30
2019-04-16T02:59:48.527Z,58.30
2019-04-16T03:00:50.487Z,58.43
2019-04-16T03:01:49.417Z,58.33
2019-04-16T03:02:48.477Z,58.43
2019-04-16T03:03:48.466Z,58.22
2019-04-16T03:04:48.462Z,58.64
2019-04-16T03:05:48.456Z,58.53
2019-04-16T03:06:48.435Z,58.64
2019-04-16T03:07:48.792Z,59.15
2019-04-16T03:08:48.417Z,59.15
2019-04-16T03:10:00.622Z,58.84
2019-04-16T03:10:49.397Z,58.94
2019-04-16T03:11:49.263Z,59.15
2019-04-16T03:12:51.903Z,59.05
2019-04-16T03:13:48.386Z,59.36
2019-04-16T03:14:48.668Z,59.15
2019-04-16T03:15:48.345Z,59.05
2019-04-16T03:16:48.331Z,59.15
2019-04-16T03:17:48.321Z,58.97
2019-04-16T03:18:48.444Z,59.18
2019-04-16T03:19:51.444Z,59.18
2019-04-16T03:20:48.809Z,59.28
2019-04-16T03:21:49.103Z,58.97
2019-04-16T03:22:48.268Z,59.05
2019-04-16T03:23:48.253Z,58.74
2019-04-16T03:24:48.253Z,58.64
2019-04-16T03:25:48.323Z,58.43
2019-04-16T03:26:50.515Z,58.53
2019-04-16T03:27:48.241Z,58.53
2019-04-16T03:28:48.507Z,58.53
2019-04-16T03:29:48.203Z,58.87
2019-04-16T03:30:48.192Z,58.74
2019-04-16T03:31:48.302Z,58.84
2019-04-16T03:32:48.170Z,58.94
2019-04-16T03:33:50.869Z,58.97
2019-04-16T03:34:50.503Z,58.97
2019-04-16T03:35:49.442Z,59.28
2019-04-16T03:36:48.122Z,59.18
2019-04-16T03:37:48.162Z,59.28
2019-04-16T03:38:48.105Z,59.28
2019-04-16T03:39:48.091Z,59.18
2019-04-16T03:40:48.081Z,59.18
2019-04-16T03:41:48.071Z,59.39
2019-04-16T03:42:48.354Z,59.39
2019-04-16T03:43:48.113Z,59.39
2019-04-16T03:44:48.039Z,59.59
2019-04-16T03:45:48.030Z,59.59
2019-04-16T03:46:48.024Z,59.59
2019-04-16T03:47:50.888Z,59.59
2019-04-16T03:48:48.000Z,59.59
2019-04-16T03:49:48.340Z,59.59
2019-04-16T03:50:48.820Z,59.49
2019-04-16T03:51:47.979Z,59.18
2019-04-16T03:52:47.967Z,59.28
2019-04-16T03:53:49.581Z,59.39
2019-04-16T03:54:48.250Z,59.39
2019-04-16T03:55:47.965Z,59.49
2019-04-16T03:56:48.209Z,59.28
2019-04-16T03:57:47.922Z,59.39
2019-04-16T03:58:47.889Z,59.39
2019-04-16T03:59:47.888Z,59.59
2019-04-16T04:00:47.880Z,59.69
2019-04-16T04:01:48.138Z,59.39
2019-04-16T04:02:47.868Z,59.39
2019-04-16T04:03:48.141Z,59.39
2019-04-16T04:04:47.848Z,59.69
2019-04-16T04:05:47.822Z,59.49
2019-04-16T04:06:47.817Z,59.80
2019-04-16T04:07:47.847Z,59.69
2019-04-16T04:08:48.958Z,59.69
2019-04-16T04:09:47.777Z,59.69
2019-04-16T04:10:48.057Z,59.69
2019-04-16T04:11:47.759Z,59.59
2019-04-16T04:12:47.766Z,59.39
2019-04-16T04:13:50.051Z,59.49
2019-04-16T04:14:47.752Z,59.59
2019-04-16T04:15:47.756Z,59.39
2019-04-16T04:16:48.055Z,59.28
2019-04-16T04:17:48.516Z,59.28
2019-04-16T04:18:47.687Z,59.18
2019-04-16T04:19:47.746Z,59.28
2019-04-16T04:20:50.519Z,59.08
2019-04-16T04:21:50.646Z,59.28
2019-04-16T04:22:48.675Z,59.08
2019-04-16T04:23:47.949Z,58.97
2019-04-16T04:24:47.625Z,58.87
2019-04-16T04:25:47.858Z,58.76
2019-04-16T04:26:47.615Z,58.97
2019-04-16T04:27:47.848Z,58.97
2019-04-16T04:28:48.594Z,59.20
2019-04-16T04:29:47.587Z,59.41
2019-04-16T04:30:48.890Z,59.31
2019-04-16T04:31:47.597Z,59.31
2019-04-16T04:32:47.885Z,59.41
2019-04-16T04:33:47.542Z,59.20
2019-04-16T04:34:48.749Z,59.41
2019-04-16T04:35:47.523Z,59.31
2019-04-16T04:36:47.523Z,59.41
2019-04-16T04:37:47.873Z,59.41
2019-04-16T04:38:47.486Z,59.41
2019-04-16T04:39:47.477Z,59.62
2019-04-16T04:40:50.488Z,59.41
2019-04-16T04:41:47.443Z,59.62
2019-04-16T04:42:47.434Z,59.62
2019-04-16T04:43:47.471Z,59.62
2019-04-16T04:44:47.423Z,59.41
2019-04-16T04:45:47.410Z,59.41
2019-04-16T04:46:47.402Z,59.83
2019-04-16T04:47:51.384Z,59.52
2019-04-16T04:48:47.374Z,59.52
2019-04-16T04:49:47.402Z,59.52
2019-04-16T04:50:48.201Z,59.31
2019-04-16T04:51:47.341Z,59.41
2019-04-16T04:52:47.332Z,59.72
2019-04-16T04:53:47.462Z,59.93
2019-04-16T04:54:47.309Z,59.83
2019-04-16T04:55:47.591Z,59.62
2019-04-16T04:56:47.290Z,59.72
2019-04-16T04:57:47.278Z,59.72
2019-04-16T04:58:47.270Z,59.72
2019-04-16T04:59:47.259Z,59.62
2019-04-16T05:00:47.241Z,59.72
2019-04-16T05:01:47.290Z,59.59
2019-04-16T05:02:47.234Z,59.28
2019-04-16T05:03:48.170Z,59.28
2019-04-16T05:04:49.613Z,59.52
2019-04-16T05:05:48.190Z,59.52
2019-04-16T05:06:47.181Z,59.28
2019-04-16T05:07:47.219Z,59.28
2019-04-16T05:08:47.449Z,59.28
2019-04-16T05:09:47.168Z,59.08
2019-04-16T05:10:58.443Z,59.08
2019-04-16T05:11:49.457Z,59.08
2019-04-16T05:12:47.129Z,58.87
2019-04-16T05:13:47.167Z,58.87
2019-04-16T05:14:47.119Z,58.87
2019-04-16T05:15:47.423Z,58.66
2019-04-16T05:16:47.180Z,58.66
2019-04-16T05:17:47.078Z,58.66
2019-04-16T05:18:47.095Z,58.87
2019-04-16T05:19:47.086Z,58.66
2019-04-16T05:20:47.685Z,58.66
2019-04-16T05:21:49.621Z,58.76
2019-04-16T05:22:47.351Z,58.87
2019-04-16T05:23:47.137Z,58.76
2019-04-16T05:24:47.530Z,59.08
2019-04-16T05:25:47.024Z,58.97
2019-04-16T05:26:46.976Z,58.97
2019-04-16T05:27:46.975Z,59.18
2019-04-16T05:28:46.959Z,59.18
2019-04-16T05:29:48.947Z,59.39
2019-04-16T05:30:51.855Z,59.28
2019-04-16T05:31:47.978Z,59.39
2019-04-16T05:32:46.925Z,59.18
2019-04-16T05:33:46.922Z,59.05
2019-04-16T05:34:46.899Z,59.15
2019-04-16T05:35:46.885Z,59.15
2019-04-16T05:36:48.159Z,58.94
2019-04-16T05:37:48.542Z,58.94
2019-04-16T05:38:46.898Z,58.84
2019-04-16T05:39:46.863Z,58.64
2019-04-16T05:40:47.074Z,58.64
2019-04-16T05:41:47.084Z,58.64
2019-04-16T05:42:46.804Z,58.74
2019-04-16T05:43:47.143Z,58.64
2019-04-16T05:44:46.793Z,58.64
2019-04-16T05:45:46.785Z,58.84
2019-04-16T05:46:47.073Z,58.61
2019-04-16T05:47:49.059Z,58.50
2019-04-16T05:48:46.780Z,58.40
2019-04-16T05:49:46.823Z,58.50
2019-04-16T05:50:47.032Z,58.30
2019-04-16T05:51:46.733Z,58.30
2019-04-16T05:52:46.722Z,58.40
2019-04-16T05:53:46.712Z,58.20
2019-04-16T05:54:46.692Z,57.86
2019-04-16T05:55:49.390Z,57.86
2019-04-16T05:56:46.673Z,58.06
2019-04-16T05:57:47.895Z,57.96
2019-04-16T05:58:46.651Z,57.55
2019-04-16T05:59:46.635Z,57.65
2019-04-16T06:00:46.623Z,57.76
2019-04-16T06:01:46.661Z,57.76
2019-04-16T06:02:49.593Z,57.65
2019-04-16T06:03:46.597Z,57.52
2019-04-16T06:04:46.925Z,57.52
2019-04-16T06:05:46.622Z,57.32
2019-04-16T06:06:46.571Z,57.21
2019-04-16T06:07:46.621Z,57.01
2019-04-16T06:08:46.549Z,57.11
2019-04-16T06:09:46.529Z,57.11
2019-04-16T06:10:49.786Z,56.88
2019-04-16T06:11:47.862Z,56.77
2019-04-16T06:12:46.499Z,56.77
2019-04-16T06:13:46.540Z,56.57
2019-04-16T06:14:49.579Z,56.67
2019-04-16T06:15:46.469Z,56.67
2019-04-16T06:16:46.471Z,56.67
2019-04-16T06:17:46.450Z,56.46
2019-04-16T06:18:46.731Z,56.36
2019-04-16T06:19:47.422Z,56.36
2019-04-16T06:20:49.453Z,56.67
2019-04-16T06:21:47.399Z,56.46
2019-04-16T06:22:46.399Z,56.65
2019-04-16T06:23:48.236Z,56.23
2019-04-16T06:24:46.377Z,56.54
2019-04-16T06:25:46.810Z,56.13
2019-04-16T06:26:47.403Z,56.03
2019-04-16T06:27:46.350Z,56.03
2019-04-16T06:28:46.412Z,55.90
2019-04-16T06:29:47.171Z,55.69
2019-04-16T06:30:46.329Z,55.38
2019-04-16T06:31:47.158Z,55.49
2019-04-16T06:32:46.703Z,55.49
2019-04-16T06:33:46.292Z,55.38
2019-04-16T06:34:46.284Z,55.28
2019-04-16T06:35:46.265Z,55.26
2019-04-16T06:36:46.255Z,54.85
2019-04-16T06:37:47.148Z,54.85
2019-04-16T06:38:46.387Z,54.74
2019-04-16T06:39:46.908Z,54.64
2019-04-16T06:40:46.326Z,54.00
2019-04-16T06:41:48.316Z,53.56
2019-04-16T06:42:46.378Z,53.45
2019-04-16T06:43:46.386Z,53.45
2019-04-16T06:44:46.180Z,53.45
2019-04-16T06:45:46.155Z,52.73
2019-04-16T06:46:47.048Z,52.61
2019-04-16T06:47:46.137Z,52.51
2019-04-16T06:48:48.074Z,52.51
2019-04-16T06:49:48.177Z,52.07
2019-04-16T06:50:46.120Z,51.97
2019-04-16T06:51:46.097Z,52.17
2019-04-16T06:52:48.953Z,51.74
2019-04-16T06:53:46.074Z,51.64
2019-04-16T06:54:46.137Z,51.53
2019-04-16T06:55:46.444Z,51.10
2019-04-16T06:56:46.575Z,50.99
2019-04-16T06:57:46.085Z,50.99
2019-04-16T06:58:51.186Z,50.77
2019-04-16T06:59:47.022Z,50.56
2019-04-16T07:00:46.584Z,50.23
2019-04-16T07:01:46.508Z,49.93
2019-04-16T07:03:01.264Z,49.72
2019-04-16T07:03:47.001Z,49.69
2019-04-16T07:04:45.986Z,49.31
2019-04-16T07:05:46.344Z,49.29
2019-04-16T07:06:45.951Z,48.98
2019-04-16T07:07:46.975Z,48.85
2019-04-16T07:08:49.825Z,48.85
2019-04-16T07:09:46.101Z,48.75
2019-04-16T07:10:45.910Z,48.11
2019-04-16T07:11:54.180Z,47.99
2019-04-16T07:12:47.460Z,47.78
2019-04-16T07:13:48.532Z,47.56
2019-04-16T07:14:48.518Z,47.23
2019-04-16T07:15:46.042Z,46.70
2019-04-16T07:16:46.063Z,46.39
2019-04-16T07:17:45.835Z,45.76
2019-04-16T07:18:46.565Z,45.55
2019-04-16T07:19:45.830Z,45.76
2019-04-16T07:20:46.645Z,45.40
2019-04-16T07:21:48.713Z,44.79
2019-04-16T07:22:45.762Z,44.57
2019-04-16T07:23:46.903Z,43.85
2019-04-16T07:24:45.879Z,44.14
2019-04-16T07:25:46.313Z,42.92
2019-04-16T07:26:47.820Z,43.43
2019-04-16T07:27:45.724Z,42.94
2019-04-16T07:28:45.782Z,43.43
2019-04-16T07:29:46.623Z,43.12
2019-04-16T07:30:46.159Z,42.41
2019-04-16T07:31:45.767Z,42.69
2019-04-16T07:32:45.677Z,42.49
2019-04-16T07:33:45.651Z,42.27
2019-04-16T07:34:45.651Z,42.18
2019-04-16T07:35:45.630Z,42.49
2019-04-16T07:36:45.711Z,42.29
2019-04-16T07:37:45.682Z,42.39
2019-04-16T07:38:46.745Z,42.37
2019-04-16T07:39:46.589Z,41.72
2019-04-16T07:40:45.583Z,40.80
2019-04-16T07:41:45.572Z,41.11
2019-04-16T07:42:52.074Z,40.78
2019-04-16T07:43:46.561Z,40.78
2019-04-16T07:44:45.540Z,40.70
2019-04-16T07:45:45.530Z,41.11
2019-04-16T07:46:47.118Z,40.50
2019-04-16T07:47:48.316Z,41.05
2019-04-16T07:48:46.819Z,40.80
2019-04-16T07:49:46.152Z,39.73
2019-04-16T07:50:45.820Z,38.70
2019-04-16T07:51:45.759Z,38.70
2019-04-16T07:52:45.799Z,38.39
2019-04-16T07:53:47.472Z,38.37
2019-04-16T07:54:45.841Z,38.25
2019-04-16T07:55:45.613Z,37.51
2019-04-16T07:56:46.398Z,37.02
2019-04-16T07:57:45.407Z,37.32
2019-04-16T07:58:45.401Z,36.88
2019-04-16T07:59:45.419Z,36.90
2019-04-16T08:00:46.279Z,36.80
2019-04-16T08:01:47.804Z,36.98
2019-04-16T08:02:45.379Z,36.98
2019-04-16T08:03:45.918Z,36.88
2019-04-16T08:04:45.338Z,36.47
2019-04-16T08:05:45.320Z,36.68
2019-04-16T08:06:47.139Z,36.36
2019-04-16T08:07:46.243Z,36.07
2019-04-16T08:08:45.287Z,35.85
2019-04-16T08:09:45.514Z,35.22
2019-04-16T08:10:45.747Z,34.99
2019-04-16T08:11:45.568Z,34.67
2019-04-16T08:12:45.402Z,34.69
2019-04-16T08:13:45.812Z,35.21
2019-04-16T08:14:45.246Z,35.53
2019-04-16T08:15:45.207Z,35.08
2019-04-16T08:16:47.497Z,33.72
2019-04-16T08:17:45.786Z,33.29
2019-04-16T08:18:46.386Z,33.09
2019-04-16T08:19:49.150Z,32.56
2019-04-16T08:20:45.227Z,31.73
2019-04-16T08:21:45.499Z,31.10
2019-04-16T08:22:47.519Z,30.79
2019-04-16T08:23:45.134Z,30.88
2019-04-16T08:24:45.191Z,30.67
2019-04-16T08:25:45.120Z,31.02
2019-04-16T08:26:45.721Z,31.93
2019-04-16T08:27:47.229Z,31.93
2019-04-16T08:28:45.087Z,30.97
2019-04-16T08:29:46.278Z,30.35
2019-04-16T08:30:45.314Z,30.46
2019-04-16T08:31:45.067Z,29.49
2019-04-16T08:32:45.822Z,29.19
2019-04-16T08:33:45.018Z,28.98
2019-04-16T08:34:45.307Z,28.45
2019-04-16T08:35:45.038Z,28.02
2019-04-16T08:36:45.055Z,27.73
2019-04-16T08:37:49.141Z,27.73
2019-04-16T08:38:45.257Z,27.95
2019-04-16T08:39:45.957Z,28.16
2019-04-16T08:40:47.085Z,27.85
2019-04-16T08:41:46.426Z,28.17
2019-04-16T08:42:46.415Z,29.09
2019-04-16T08:43:45.739Z,28.45
2019-04-16T08:44:44.917Z,27.91
2019-04-16T08:45:45.741Z,27.52
2019-04-16T08:46:46.621Z,27.39
2019-04-16T08:47:46.078Z,26.78
2019-04-16T08:48:48.950Z,27.20
2019-04-16T08:49:46.422Z,27.19
2019-04-16T08:50:44.867Z,27.11
2019-04-16T08:51:45.783Z,26.98
2019-04-16T08:52:44.820Z,26.77
2019-04-16T08:53:46.764Z,26.56
2019-04-16T08:54:50.071Z,25.85
2019-04-16T08:55:45.812Z,25.74
2019-04-16T08:56:44.811Z,25.76
2019-04-16T08:57:46.890Z,25.74
2019-04-16T08:58:44.805Z,25.55
2019-04-16T08:59:44.766Z,25.63
2019-04-16T09:00:46.638Z,25.63
2019-04-16T09:01:44.728Z,26.04
2019-04-16T09:02:44.726Z,25.73
2019-04-16T09:03:44.719Z,25.41
2019-04-16T09:04:44.709Z,25.10
2019-04-16T09:05:45.096Z,25.42
2019-04-16T09:06:47.306Z,26.34
2019-04-16T09:07:44.676Z,26.46
2019-04-16T09:08:44.658Z,26.64
2019-04-16T09:09:44.837Z,25.61
2019-04-16T09:10:44.941Z,25.20
2019-04-16T09:11:48.479Z,25.29
2019-04-16T09:12:51.015Z,24.57
2019-04-16T09:13:48.212Z,24.58
2019-04-16T09:14:44.599Z,24.48
2019-04-16T09:15:44.598Z,24.28
2019-04-16T09:16:44.597Z,24.48
2019-04-16T09:17:44.577Z,24.48
2019-04-16T09:18:44.581Z,24.46
2019-04-16T09:19:44.551Z,24.34
2019-04-16T09:20:44.538Z,24.49
2019-04-16T09:21:44.986Z,25.19
2019-04-16T09:22:49.218Z,25.10
2019-04-16T09:23:45.562Z,24.98
2019-04-16T09:24:44.564Z,24.46
2019-04-16T09:25:45.855Z,24.16
2019-04-16T09:26:44.460Z,24.48
2019-04-16T09:27:44.449Z,24.55
2019-04-16T09:28:44.490Z,24.23
2019-04-16T09:29:44.452Z,24.13
2019-04-16T09:30:46.590Z,24.15
2019-04-16T09:31:45.440Z,24.55
2019-04-16T09:32:44.400Z,24.88
2019-04-16T09:33:44.397Z,25.61
2019-04-16T09:34:44.420Z,26.91
2019-04-16T09:35:45.137Z,30.43
2019-04-16T09:36:44.390Z,31.88
2019-04-16T09:37:44.853Z,33.11
2019-04-16T09:38:45.474Z,33.73
2019-04-16T09:39:44.400Z,33.85
2019-04-16T09:40:44.325Z,34.17
2019-04-16T09:41:44.386Z,34.62
2019-04-16T09:42:44.510Z,35.95
2019-04-16T09:43:44.290Z,35.65
2019-04-16T09:44:44.296Z,36.25
2019-04-16T09:45:44.402Z,36.54
2019-04-16T09:46:51.199Z,36.34
2019-04-16T09:47:45.416Z,35.83
2019-04-16T09:48:44.264Z,36.55
2019-04-16T09:49:44.231Z,36.66
2019-04-16T09:50:47.797Z,36.76
2019-04-16T09:51:45.575Z,36.77
2019-04-16T09:52:44.892Z,37.08
2019-04-16T09:53:45.221Z,36.68
2019-04-16T09:54:45.190Z,36.99
2019-04-16T09:55:47.644Z,37.30
2019-04-16T09:56:45.150Z,37.50
2019-04-16T09:57:44.146Z,37.81
2019-04-16T09:58:45.152Z,36.59
2019-04-16T09:59:44.751Z,36.54
2019-04-16T10:00:47.002Z,34.54
2019-04-16T10:01:44.103Z,32.55
2019-04-16T10:02:44.122Z,30.61
2019-04-16T10:03:44.092Z,29.88
2019-04-16T10:04:44.084Z,29.45
2019-04-16T10:05:44.100Z,28.91
2019-04-16T10:06:44.401Z,28.51
2019-04-16T10:07:44.370Z,27.98
2019-04-16T10:08:45.021Z,27.47
2019-04-16T10:09:44.972Z,28.09
2019-04-16T10:10:44.039Z,28.92
2019-04-16T10:11:44.021Z,27.26
2019-04-16T10:12:44.063Z,26.53
2019-04-16T10:13:43.995Z,25.99
2019-04-16T10:14:45.385Z,24.84
2019-04-16T10:15:45.209Z,24.32
2019-04-16T10:16:44.114Z,24.23
2019-04-16T10:17:44.492Z,24.13
2019-04-16T10:18:44.495Z,24.05
2019-04-16T10:19:44.100Z,24.76
2019-04-16T10:20:44.535Z,24.54
2019-04-16T10:21:45.610Z,24.02
2019-04-16T10:22:46.514Z,23.49
2019-04-16T10:23:44.008Z,23.18
2019-04-16T10:24:44.589Z,22.67
2019-04-16T10:25:43.889Z,23.38
2019-04-16T10:26:43.843Z,23.60
2019-04-16T10:27:43.834Z,23.63
2019-04-16T10:28:43.871Z,24.32
2019-04-16T10:29:43.846Z,24.24
2019-04-16T10:30:43.821Z,23.82
2019-04-16T10:31:43.797Z,24.32
2019-04-16T10:32:43.779Z,24.53
2019-04-16T10:33:43.876Z,23.70
2019-04-16T10:34:44.203Z,23.50
2019-04-16T10:35:44.285Z,23.70
2019-04-16T10:36:44.816Z,23.29
2019-04-16T10:37:43.764Z,23.28
2019-04-16T10:38:43.958Z,23.16
2019-04-16T10:39:43.791Z,22.15
2019-04-16T10:40:43.736Z,22.26
2019-04-16T10:41:43.710Z,21.95
2019-04-16T10:42:43.678Z,22.58
2019-04-16T10:43:45.012Z,22.97
2019-04-16T10:44:43.673Z,22.56
2019-04-16T10:45:43.757Z,22.67
2019-04-16T10:46:43.898Z,22.86
2019-04-16T10:47:43.747Z,22.45
2019-04-16T10:48:43.613Z,22.13
2019-04-16T10:49:43.661Z,21.73
2019-04-16T10:50:43.602Z,21.82
2019-04-16T10:51:43.611Z,22.34
2019-04-16T10:52:43.776Z,22.24
2019-04-16T10:53:44.480Z,21.74
2019-04-16T10:54:43.757Z,21.94
2019-04-16T10:55:44.450Z,22.07
2019-04-16T10:56:44.271Z,23.63
2019-04-16T10:57:43.853Z,24.02
2019-04-16T10:58:43.775Z,24.05
2019-04-16T10:59:43.555Z,23.82
2019-04-16T11:00:43.509Z,23.50
2019-04-16T11:01:43.585Z,23.28
2019-04-16T11:02:43.528Z,22.56
2019-04-16T11:03:43.610Z,23.41
2019-04-16T11:04:44.022Z,23.91
2019-04-16T11:05:43.527Z,23.82
2019-04-16T11:06:43.454Z,23.19
2019-04-16T11:07:43.448Z,22.67
2019-04-16T11:08:43.445Z,23.69
2019-04-16T11:09:43.427Z,23.18
2019-04-16T11:10:43.991Z,22.26
2019-04-16T11:11:43.515Z,22.38
2019-04-16T11:12:43.393Z,22.78
2019-04-16T11:13:43.369Z,22.45
2019-04-16T11:14:43.405Z,22.14
2019-04-16T11:15:44.315Z,21.94
2019-04-16T11:16:43.359Z,21.64
2019-04-16T11:17:43.418Z,23.18
2019-04-16T11:18:44.118Z,22.56
2019-04-16T11:19:43.340Z,23.25
2019-04-16T11:20:43.332Z,22.86
2019-04-16T11:21:43.384Z,23.07
2019-04-16T11:22:43.303Z,22.78
2019-04-16T11:23:44.133Z,22.58
2019-04-16T11:24:43.982Z,22.37
2019-04-16T11:25:46.790Z,21.95
2019-04-16T11:26:44.538Z,21.66
2019-04-16T11:27:43.735Z,21.35
2019-04-16T11:28:43.637Z,20.76
2019-04-16T11:29:43.461Z,20.14
2019-04-16T11:30:43.206Z,20.14
2019-04-16T11:31:43.223Z,20.03
2019-04-16T11:32:43.168Z,20.23
2019-04-16T11:33:43.203Z,20.41
2019-04-16T11:34:43.655Z,20.30
2019-04-16T11:35:44.633Z,20.62
2019-04-16T11:36:43.213Z,21.35
2019-04-16T11:37:44.506Z,22.16
2019-04-16T11:38:43.150Z,21.26
2019-04-16T11:39:43.772Z,21.23
2019-04-16T11:40:43.257Z,20.32
2019-04-16T11:41:43.504Z,19.62
2019-04-16T11:42:43.730Z,20.35
2019-04-16T11:43:43.107Z,21.07
2019-04-16T11:44:43.748Z,21.39
2019-04-16T11:45:43.072Z,21.47
2019-04-16T11:46:43.034Z,20.62
2019-04-16T11:47:44.134Z,20.83
2019-04-16T11:48:44.505Z,20.31
2019-04-16T11:49:43.200Z,20.42
2019-04-16T11:50:43.213Z,21.45
2019-04-16T11:51:43.172Z,20.83
2019-04-16T11:52:43.110Z,20.03
2019-04-16T11:53:45.219Z,20.35
2019-04-16T11:54:46.778Z,20.35
2019-04-16T11:55:43.599Z,21.88
2019-04-16T11:56:43.038Z,21.37
2019-04-16T11:57:42.953Z,22.30
2019-04-16T11:58:43.076Z,22.49
2019-04-16T11:59:43.998Z,21.67
2019-04-16T12:00:42.899Z,21.46
2019-04-16T12:01:42.928Z,21.66
2019-04-16T12:02:43.205Z,21.66
2019-04-16T12:03:42.888Z,21.67
2019-04-16T12:04:42.875Z,21.47
2019-04-16T12:05:43.157Z,21.04
2019-04-16T12:06:42.879Z,20.83
2019-04-16T12:07:47.040Z,21.13
2019-04-16T12:08:42.863Z,20.81
2019-04-16T12:09:44.185Z,20.41
2019-04-16T12:10:42.822Z,20.00
2019-04-16T12:11:42.831Z,19.70
2019-04-16T12:12:42.841Z,20.03
2019-04-16T12:13:42.799Z,20.12
2019-04-16T12:14:43.678Z,19.82
2019-04-16T12:15:42.776Z,20.86
2019-04-16T12:16:42.765Z,21.29
2019-04-16T12:17:42.840Z,21.70
2019-04-16T12:18:43.718Z,21.37
2019-04-16T12:19:44.958Z,20.94
2019-04-16T12:20:42.743Z,20.54
2019-04-16T12:22:57.747Z,20.01
2019-04-16T12:23:57.620Z,19.80
2019-04-16T12:24:58.009Z,19.81
2019-04-16T12:25:57.589Z,19.60
2019-04-16T12:26:57.589Z,19.20
2019-04-16T12:27:57.780Z,18.79
2019-04-16T12:28:57.668Z,18.68
2019-04-16T12:29:57.534Z,18.17
2019-04-16T12:30:58.131Z,18.07
2019-04-16T12:31:57.722Z,18.48
2019-04-16T12:32:57.773Z,18.58
2019-04-16T12:33:58.457Z,18.59
2019-04-16T12:34:58.099Z,19.29
2019-04-16T12:35:57.496Z,19.90
2019-04-16T12:36:58.197Z,20.21
2019-04-16T12:37:57.446Z,20.73
2019-04-16T12:38:57.476Z,19.82
2019-04-16T12:39:59.559Z,19.72
2019-04-16T12:40:57.702Z,19.93
2019-04-16T12:42:00.011Z,20.31
2019-04-16T12:42:57.807Z,19.40
2019-04-16T12:43:58.386Z,18.57
2019-04-16T12:44:58.430Z,18.70
2019-04-16T12:45:57.901Z,18.90
2019-04-16T12:46:57.451Z,18.69
2019-04-16T12:47:59.055Z,19.10
2019-04-16T12:48:57.365Z,19.19
2019-04-16T12:49:57.349Z,18.99
2019-04-16T12:50:57.323Z,18.88
2019-04-16T12:51:57.588Z,18.57
2019-04-16T12:52:57.529Z,18.48
2019-04-16T12:53:57.314Z,18.48
2019-04-16T12:54:59.261Z,18.57